sensor_id;sensor_type;location;lat;lon;timestamp;P1;durP1;ratioP1;P2;durP2;ratioP2
60038;SDS011;45916;52.734;6.544;2023-12-14T00:01:24;21.65;;;15.25;;
60038;SDS011;45916;52.734;6.544;2023-12-14T00:03:50;19.13;;;15.13;;
60038;SDS011;45916;52.734;6.544;2023-12-14T00:06:16;21.83;;;16.17;;
60038;SDS011;45916;52.734;6.544;2023-12-14T00:08:41;20.42;;;15.85;;
60038;SDS011;45916;52.734;6.544;2023-12-14T00:11:07;20.63;;;15.38;;
60038;SDS011;45916;52.734;6.544;2023-12-14T00:13:35;20.43;;;16.00;;
60038;SDS011;45916;52.734;6.544;2023-12-14T00:16:01;21.95;;;15.75;;
60038;SDS011;45916;52.734;6.544;2023-12-14T00:18:27;19.77;;;14.55;;
60038;SDS011;45916;52.734;6.544;2023-12-14T00:20:52;19.73;;;15.55;;
60038;SDS011;45916;52.734;6.544;2023-12-14T00:23:22;20.45;;;15.10;;
60038;SDS011;45916;52.734;6.544;2023-12-14T00:25:48;18.63;;;14.10;;
60038;SDS011;45916;52.734;6.544;2023-12-14T00:28:14;18.08;;;13.98;;
60038;SDS011;45916;52.734;6.544;2023-12-14T00:30:40;18.40;;;13.82;;
60038;SDS011;45916;52.734;6.544;2023-12-14T00:33:06;17.08;;;13.35;;
60038;SDS011;45916;52.734;6.544;2023-12-14T00:35:31;16.85;;;12.88;;
60038;SDS011;45916;52.734;6.544;2023-12-14T00:37:57;17.73;;;13.70;;
60038;SDS011;45916;52.734;6.544;2023-12-14T00:40:23;17.48;;;13.23;;
60038;SDS011;45916;52.734;6.544;2023-12-14T00:42:50;15.50;;;12.43;;
60038;SDS011;45916;52.734;6.544;2023-12-14T00:45:16;16.55;;;13.00;;
60038;SDS011;45916;52.734;6.544;2023-12-14T00:47:42;17.27;;;13.02;;
60038;SDS011;45916;52.734;6.544;2023-12-14T00:50:08;17.48;;;13.23;;
60038;SDS011;45916;52.734;6.544;2023-12-14T00:52:34;16.90;;;13.20;;
60038;SDS011;45916;52.734;6.544;2023-12-14T00:55:00;17.85;;;12.85;;
60038;SDS011;45916;52.734;6.544;2023-12-14T00:57:25;18.50;;;13.60;;
60038;SDS011;45916;52.734;6.544;2023-12-14T00:59:51;17.70;;;13.15;;
60038;SDS011;45916;52.734;6.544;2023-12-14T01:02:17;17.75;;;12.80;;
60038;SDS011;45916;52.734;6.544;2023-12-14T01:04:42;16.15;;;12.70;;
60038;SDS011;45916;52.734;6.544;2023-12-14T01:07:08;16.77;;;11.70;;
60038;SDS011;45916;52.734;6.544;2023-12-14T01:09:35;15.95;;;12.10;;
60038;SDS011;45916;52.734;6.544;2023-12-14T01:12:00;17.10;;;12.85;;
60038;SDS011;45916;52.734;6.544;2023-12-14T01:14:26;17.95;;;13.48;;
60038;SDS011;45916;52.734;6.544;2023-12-14T01:16:52;15.75;;;12.00;;
60038;SDS011;45916;52.734;6.544;2023-12-14T01:19:18;16.10;;;12.35;;
60038;SDS011;45916;52.734;6.544;2023-12-14T01:21:43;17.20;;;13.38;;
60038;SDS011;45916;52.734;6.544;2023-12-14T01:24:09;16.15;;;12.75;;
60038;SDS011;45916;52.734;6.544;2023-12-14T01:26:35;15.35;;;12.25;;
60038;SDS011;45916;52.734;6.544;2023-12-14T01:29:01;15.27;;;11.25;;
60038;SDS011;45916;52.734;6.544;2023-12-14T01:31:27;18.83;;;12.75;;
60038;SDS011;45916;52.734;6.544;2023-12-14T01:33:53;16.90;;;12.63;;
60038;SDS011;45916;52.734;6.544;2023-12-14T01:36:20;17.73;;;12.73;;
60038;SDS011;45916;52.734;6.544;2023-12-14T01:38:50;16.85;;;12.93;;
60038;SDS011;45916;52.734;6.544;2023-12-14T01:41:16;14.85;;;11.27;;
60038;SDS011;45916;52.734;6.544;2023-12-14T01:43:42;16.48;;;12.32;;
60038;SDS011;45916;52.734;6.544;2023-12-14T01:46:08;18.08;;;13.05;;
60038;SDS011;45916;52.734;6.544;2023-12-14T01:48:34;18.05;;;12.20;;
60038;SDS011;45916;52.734;6.544;2023-12-14T01:51:00;16.60;;;12.10;;
60038;SDS011;45916;52.734;6.544;2023-12-14T01:53:26;15.45;;;11.45;;
60038;SDS011;45916;52.734;6.544;2023-12-14T01:55:52;16.23;;;12.63;;
60038;SDS011;45916;52.734;6.544;2023-12-14T01:58:17;17.48;;;12.07;;
60038;SDS011;45916;52.734;6.544;2023-12-14T02:00:58;16.00;;;12.32;;
60038;SDS011;45916;52.734;6.544;2023-12-14T02:03:27;16.70;;;12.27;;
60038;SDS011;45916;52.734;6.544;2023-12-14T02:05:53;18.08;;;12.07;;
60038;SDS011;45916;52.734;6.544;2023-12-14T02:08:19;15.85;;;11.60;;
60038;SDS011;45916;52.734;6.544;2023-12-14T02:10:44;15.88;;;11.43;;
60038;SDS011;45916;52.734;6.544;2023-12-14T02:13:10;15.93;;;12.00;;
60038;SDS011;45916;52.734;6.544;2023-12-14T02:15:36;17.15;;;11.43;;
60038;SDS011;45916;52.734;6.544;2023-12-14T02:18:02;16.35;;;11.52;;
60038;SDS011;45916;52.734;6.544;2023-12-14T02:20:27;14.45;;;10.95;;
60038;SDS011;45916;52.734;6.544;2023-12-14T02:22:53;16.05;;;11.82;;
60038;SDS011;45916;52.734;6.544;2023-12-14T02:25:21;16.25;;;11.55;;
60038;SDS011;45916;52.734;6.544;2023-12-14T02:27:47;15.80;;;11.20;;
60038;SDS011;45916;52.734;6.544;2023-12-14T02:30:14;14.77;;;10.75;;
60038;SDS011;45916;52.734;6.544;2023-12-14T02:32:40;17.33;;;12.13;;
60038;SDS011;45916;52.734;6.544;2023-12-14T02:35:06;17.67;;;11.68;;
60038;SDS011;45916;52.734;6.544;2023-12-14T02:37:33;18.17;;;13.05;;
60038;SDS011;45916;52.734;6.544;2023-12-14T02:40:02;17.08;;;11.75;;
60038;SDS011;45916;52.734;6.544;2023-12-14T02:42:28;19.67;;;12.45;;
60038;SDS011;45916;52.734;6.544;2023-12-14T02:44:54;17.25;;;11.75;;
60038;SDS011;45916;52.734;6.544;2023-12-14T02:47:20;17.80;;;11.93;;
60038;SDS011;45916;52.734;6.544;2023-12-14T02:49:46;14.93;;;11.63;;
60038;SDS011;45916;52.734;6.544;2023-12-14T02:52:12;16.45;;;12.07;;
60038;SDS011;45916;52.734;6.544;2023-12-14T02:54:41;15.90;;;10.77;;
60038;SDS011;45916;52.734;6.544;2023-12-14T02:57:06;16.45;;;11.82;;
60038;SDS011;45916;52.734;6.544;2023-12-14T02:59:32;14.63;;;11.77;;
60038;SDS011;45916;52.734;6.544;2023-12-14T03:01:58;15.88;;;11.07;;
60038;SDS011;45916;52.734;6.544;2023-12-14T03:04:24;16.73;;;11.55;;
60038;SDS011;45916;52.734;6.544;2023-12-14T03:06:50;16.33;;;11.30;;
60038;SDS011;45916;52.734;6.544;2023-12-14T03:09:16;15.43;;;11.23;;
60038;SDS011;45916;52.734;6.544;2023-12-14T03:11:44;15.18;;;11.38;;
60038;SDS011;45916;52.734;6.544;2023-12-14T03:14:10;17.17;;;11.18;;
60038;SDS011;45916;52.734;6.544;2023-12-14T03:16:36;14.85;;;11.23;;
60038;SDS011;45916;52.734;6.544;2023-12-14T03:19:02;15.90;;;11.50;;
60038;SDS011;45916;52.734;6.544;2023-12-14T03:21:28;15.88;;;9.70;;
60038;SDS011;45916;52.734;6.544;2023-12-14T03:23:54;15.88;;;11.25;;
60038;SDS011;45916;52.734;6.544;2023-12-14T03:26:20;16.85;;;11.27;;
60038;SDS011;45916;52.734;6.544;2023-12-14T03:28:46;16.77;;;12.10;;
60038;SDS011;45916;52.734;6.544;2023-12-14T03:31:12;14.82;;;11.55;;
60038;SDS011;45916;52.734;6.544;2023-12-14T03:33:38;17.10;;;11.55;;
60038;SDS011;45916;52.734;6.544;2023-12-14T03:36:05;16.55;;;11.80;;
60038;SDS011;45916;52.734;6.544;2023-12-14T03:38:31;17.42;;;11.50;;
60038;SDS011;45916;52.734;6.544;2023-12-14T03:40:58;19.35;;;12.05;;
60038;SDS011;45916;52.734;6.544;2023-12-14T03:43:23;16.60;;;11.68;;
60038;SDS011;45916;52.734;6.544;2023-12-14T03:45:49;20.02;;;12.20;;
60038;SDS011;45916;52.734;6.544;2023-12-14T03:48:15;16.05;;;11.15;;
60038;SDS011;45916;52.734;6.544;2023-12-14T03:50:41;17.15;;;11.45;;
60038;SDS011;45916;52.734;6.544;2023-12-14T03:53:07;18.38;;;11.45;;
60038;SDS011;45916;52.734;6.544;2023-12-14T03:55:33;14.52;;;11.30;;
60038;SDS011;45916;52.734;6.544;2023-12-14T03:57:58;14.35;;;11.32;;
60038;SDS011;45916;52.734;6.544;2023-12-14T04:00:24;17.95;;;11.85;;
60038;SDS011;45916;52.734;6.544;2023-12-14T04:02:50;16.83;;;11.23;;
60038;SDS011;45916;52.734;6.544;2023-12-14T04:05:16;17.15;;;11.85;;
60038;SDS011;45916;52.734;6.544;2023-12-14T04:07:42;16.35;;;11.10;;
60038;SDS011;45916;52.734;6.544;2023-12-14T04:10:12;14.38;;;11.05;;
60038;SDS011;45916;52.734;6.544;2023-12-14T04:12:38;16.10;;;10.35;;
60038;SDS011;45916;52.734;6.544;2023-12-14T04:15:05;14.40;;;10.57;;
60038;SDS011;45916;52.734;6.544;2023-12-14T04:17:32;15.05;;;9.85;;
60038;SDS011;45916;52.734;6.544;2023-12-14T04:19:58;15.13;;;11.07;;
60038;SDS011;45916;52.734;6.544;2023-12-14T04:22:25;14.80;;;11.00;;
60038;SDS011;45916;52.734;6.544;2023-12-14T04:24:51;16.25;;;10.45;;
60038;SDS011;45916;52.734;6.544;2023-12-14T04:27:17;13.35;;;9.70;;
60038;SDS011;45916;52.734;6.544;2023-12-14T04:29:43;15.90;;;10.68;;
60038;SDS011;45916;52.734;6.544;2023-12-14T04:32:09;15.30;;;10.20;;
60038;SDS011;45916;52.734;6.544;2023-12-14T04:34:35;14.50;;;10.18;;
60038;SDS011;45916;52.734;6.544;2023-12-14T04:37:01;15.15;;;10.07;;
60038;SDS011;45916;52.734;6.544;2023-12-14T04:39:27;14.43;;;10.73;;
60038;SDS011;45916;52.734;6.544;2023-12-14T04:41:53;13.55;;;10.65;;
60038;SDS011;45916;52.734;6.544;2023-12-14T04:44:19;13.55;;;10.00;;
60038;SDS011;45916;52.734;6.544;2023-12-14T04:46:46;16.27;;;11.02;;
60038;SDS011;45916;52.734;6.544;2023-12-14T04:49:15;13.18;;;9.15;;
60038;SDS011;45916;52.734;6.544;2023-12-14T04:51:41;16.25;;;10.35;;
60038;SDS011;45916;52.734;6.544;2023-12-14T04:54:08;14.77;;;10.13;;
60038;SDS011;45916;52.734;6.544;2023-12-14T04:56:34;17.30;;;10.35;;
60038;SDS011;45916;52.734;6.544;2023-12-14T04:59:00;16.08;;;11.02;;
60038;SDS011;45916;52.734;6.544;2023-12-14T05:01:26;17.38;;;11.00;;
60038;SDS011;45916;52.734;6.544;2023-12-14T05:03:54;15.38;;;10.43;;
60038;SDS011;45916;52.734;6.544;2023-12-14T05:06:20;16.05;;;11.48;;
60038;SDS011;45916;52.734;6.544;2023-12-14T05:08:47;16.63;;;11.27;;
60038;SDS011;45916;52.734;6.544;2023-12-14T05:11:13;16.38;;;11.95;;
60038;SDS011;45916;52.734;6.544;2023-12-14T05:13:39;16.52;;;10.35;;
60038;SDS011;45916;52.734;6.544;2023-12-14T05:16:05;17.08;;;11.60;;
60038;SDS011;45916;52.734;6.544;2023-12-14T05:18:32;18.83;;;11.82;;
60038;SDS011;45916;52.734;6.544;2023-12-14T05:20:58;17.15;;;11.77;;
60038;SDS011;45916;52.734;6.544;2023-12-14T05:23:24;17.23;;;11.38;;
60038;SDS011;45916;52.734;6.544;2023-12-14T05:25:50;17.23;;;11.98;;
60038;SDS011;45916;52.734;6.544;2023-12-14T05:28:16;18.00;;;11.48;;
60038;SDS011;45916;52.734;6.544;2023-12-14T05:30:41;16.20;;;10.82;;
60038;SDS011;45916;52.734;6.544;2023-12-14T05:33:07;18.80;;;11.82;;
60038;SDS011;45916;52.734;6.544;2023-12-14T05:35:33;17.77;;;11.63;;
60038;SDS011;45916;52.734;6.544;2023-12-14T05:37:59;18.58;;;11.77;;
60038;SDS011;45916;52.734;6.544;2023-12-14T05:40:25;16.38;;;11.40;;
60038;SDS011;45916;52.734;6.544;2023-12-14T05:42:51;16.35;;;11.18;;
60038;SDS011;45916;52.734;6.544;2023-12-14T05:45:17;13.88;;;11.15;;
60038;SDS011;45916;52.734;6.544;2023-12-14T05:47:44;18.35;;;11.93;;
60038;SDS011;45916;52.734;6.544;2023-12-14T05:50:09;19.40;;;12.88;;
60038;SDS011;45916;52.734;6.544;2023-12-14T05:52:38;17.67;;;11.65;;
60038;SDS011;45916;52.734;6.544;2023-12-14T05:55:07;16.20;;;11.38;;
60038;SDS011;45916;52.734;6.544;2023-12-14T05:57:35;18.83;;;12.45;;
60038;SDS011;45916;52.734;6.544;2023-12-14T06:00:01;20.20;;;14.02;;
60038;SDS011;45916;52.734;6.544;2023-12-14T06:02:28;18.40;;;12.18;;
60038;SDS011;45916;52.734;6.544;2023-12-14T06:04:55;19.40;;;11.90;;
60038;SDS011;45916;52.734;6.544;2023-12-14T06:07:23;19.45;;;12.25;;
60038;SDS011;45916;52.734;6.544;2023-12-14T06:09:49;20.73;;;12.55;;
60038;SDS011;45916;52.734;6.544;2023-12-14T06:12:14;16.88;;;12.10;;
60038;SDS011;45916;52.734;6.544;2023-12-14T06:14:40;18.33;;;13.27;;
60038;SDS011;45916;52.734;6.544;2023-12-14T06:17:06;17.67;;;12.00;;
60038;SDS011;45916;52.734;6.544;2023-12-14T06:19:31;18.40;;;12.95;;
60038;SDS011;45916;52.734;6.544;2023-12-14T06:21:57;19.45;;;11.98;;
60038;SDS011;45916;52.734;6.544;2023-12-14T06:24:23;17.70;;;12.23;;
60038;SDS011;45916;52.734;6.544;2023-12-14T06:26:49;19.70;;;13.43;;
60038;SDS011;45916;52.734;6.544;2023-12-14T06:29:14;17.42;;;12.40;;
60038;SDS011;45916;52.734;6.544;2023-12-14T06:31:40;18.25;;;13.23;;
60038;SDS011;45916;52.734;6.544;2023-12-14T06:34:06;19.60;;;12.73;;
60038;SDS011;45916;52.734;6.544;2023-12-14T06:36:35;18.45;;;12.52;;
60038;SDS011;45916;52.734;6.544;2023-12-14T06:39:01;16.67;;;11.70;;
60038;SDS011;45916;52.734;6.544;2023-12-14T06:41:28;18.15;;;12.07;;
60038;SDS011;45916;52.734;6.544;2023-12-14T06:43:54;17.50;;;11.65;;
60038;SDS011;45916;52.734;6.544;2023-12-14T06:46:20;17.67;;;12.95;;
60038;SDS011;45916;52.734;6.544;2023-12-14T06:48:46;18.50;;;11.68;;
60038;SDS011;45916;52.734;6.544;2023-12-14T06:51:12;17.85;;;12.30;;
60038;SDS011;45916;52.734;6.544;2023-12-14T06:53:42;21.20;;;13.25;;
60038;SDS011;45916;52.734;6.544;2023-12-14T06:56:09;17.63;;;11.85;;
60038;SDS011;45916;52.734;6.544;2023-12-14T06:58:42;16.33;;;11.63;;
60038;SDS011;45916;52.734;6.544;2023-12-14T07:01:13;20.58;;;13.57;;
60038;SDS011;45916;52.734;6.544;2023-12-14T07:03:43;18.88;;;13.48;;
60038;SDS011;45916;52.734;6.544;2023-12-14T07:06:16;18.77;;;13.40;;
60038;SDS011;45916;52.734;6.544;2023-12-14T07:08:43;18.35;;;12.52;;
60038;SDS011;45916;52.734;6.544;2023-12-14T07:11:09;19.75;;;12.48;;
60038;SDS011;45916;52.734;6.544;2023-12-14T07:13:36;17.52;;;12.48;;
60038;SDS011;45916;52.734;6.544;2023-12-14T07:16:06;19.25;;;12.65;;
60038;SDS011;45916;52.734;6.544;2023-12-14T07:18:33;17.42;;;12.00;;
60038;SDS011;45916;52.734;6.544;2023-12-14T07:21:00;16.90;;;12.02;;
60038;SDS011;45916;52.734;6.544;2023-12-14T07:23:27;18.45;;;12.63;;
60038;SDS011;45916;52.734;6.544;2023-12-14T07:25:53;20.67;;;12.93;;
60038;SDS011;45916;52.734;6.544;2023-12-14T07:28:19;19.20;;;11.80;;
60038;SDS011;45916;52.734;6.544;2023-12-14T07:30:45;17.02;;;11.35;;
60038;SDS011;45916;52.734;6.544;2023-12-14T07:33:11;23.10;;;12.82;;
60038;SDS011;45916;52.734;6.544;2023-12-14T07:35:37;19.65;;;12.57;;
60038;SDS011;45916;52.734;6.544;2023-12-14T07:38:03;19.23;;;12.18;;
60038;SDS011;45916;52.734;6.544;2023-12-14T07:40:29;20.15;;;12.93;;
60038;SDS011;45916;52.734;6.544;2023-12-14T07:42:55;19.05;;;12.90;;
60038;SDS011;45916;52.734;6.544;2023-12-14T07:45:20;20.25;;;12.32;;
60038;SDS011;45916;52.734;6.544;2023-12-14T07:47:46;20.30;;;12.13;;
60038;SDS011;45916;52.734;6.544;2023-12-14T07:50:12;18.17;;;11.82;;
60038;SDS011;45916;52.734;6.544;2023-12-14T07:52:38;19.90;;;12.95;;
60038;SDS011;45916;52.734;6.544;2023-12-14T07:55:05;19.83;;;12.93;;
60038;SDS011;45916;52.734;6.544;2023-12-14T07:57:32;17.27;;;11.65;;
60038;SDS011;45916;52.734;6.544;2023-12-14T07:59:57;18.17;;;12.82;;
60038;SDS011;45916;52.734;6.544;2023-12-14T08:02:23;16.52;;;12.00;;
60038;SDS011;45916;52.734;6.544;2023-12-14T08:04:49;19.50;;;12.25;;
60038;SDS011;45916;52.734;6.544;2023-12-14T08:07:14;20.17;;;12.95;;
60038;SDS011;45916;52.734;6.544;2023-12-14T08:09:40;18.00;;;12.45;;
60038;SDS011;45916;52.734;6.544;2023-12-14T08:12:06;21.70;;;13.30;;
60038;SDS011;45916;52.734;6.544;2023-12-14T08:14:33;22.73;;;14.85;;
60038;SDS011;45916;52.734;6.544;2023-12-14T08:16:59;21.27;;;14.05;;
60038;SDS011;45916;52.734;6.544;2023-12-14T08:19:26;19.35;;;12.68;;
60038;SDS011;45916;52.734;6.544;2023-12-14T08:21:52;20.48;;;13.65;;
60038;SDS011;45916;52.734;6.544;2023-12-14T08:24:18;20.13;;;14.18;;
60038;SDS011;45916;52.734;6.544;2023-12-14T08:26:44;22.27;;;14.50;;
60038;SDS011;45916;52.734;6.544;2023-12-14T08:29:10;21.25;;;14.38;;
60038;SDS011;45916;52.734;6.544;2023-12-14T08:31:35;20.60;;;14.32;;
60038;SDS011;45916;52.734;6.544;2023-12-14T08:34:01;20.52;;;14.35;;
60038;SDS011;45916;52.734;6.544;2023-12-14T08:36:28;21.80;;;15.63;;
60038;SDS011;45916;52.734;6.544;2023-12-14T08:38:54;21.48;;;15.40;;
60038;SDS011;45916;52.734;6.544;2023-12-14T08:41:20;26.05;;;14.23;;
60038;SDS011;45916;52.734;6.544;2023-12-14T08:43:46;25.35;;;15.07;;
60038;SDS011;45916;52.734;6.544;2023-12-14T08:46:12;19.50;;;14.82;;
60038;SDS011;45916;52.734;6.544;2023-12-14T08:48:38;22.88;;;14.50;;
60038;SDS011;45916;52.734;6.544;2023-12-14T08:51:03;19.63;;;13.60;;
60038;SDS011;45916;52.734;6.544;2023-12-14T08:53:30;18.73;;;12.82;;
60038;SDS011;45916;52.734;6.544;2023-12-14T08:55:55;21.75;;;14.32;;
60038;SDS011;45916;52.734;6.544;2023-12-14T08:58:21;20.27;;;13.90;;
60038;SDS011;45916;52.734;6.544;2023-12-14T09:00:47;19.73;;;13.75;;
60038;SDS011;45916;52.734;6.544;2023-12-14T09:03:18;22.55;;;13.38;;
60038;SDS011;45916;52.734;6.544;2023-12-14T09:05:44;19.23;;;12.65;;
60038;SDS011;45916;52.734;6.544;2023-12-14T09:08:10;17.73;;;12.68;;
60038;SDS011;45916;52.734;6.544;2023-12-14T09:10:36;18.00;;;13.48;;
60038;SDS011;45916;52.734;6.544;2023-12-14T09:13:05;18.00;;;12.43;;
60038;SDS011;45916;52.734;6.544;2023-12-14T09:15:31;18.05;;;12.85;;
60038;SDS011;45916;52.734;6.544;2023-12-14T09:17:58;15.57;;;12.25;;
60038;SDS011;45916;52.734;6.544;2023-12-14T09:20:24;21.80;;;13.68;;
60038;SDS011;45916;52.734;6.544;2023-12-14T09:22:51;20.83;;;13.52;;
60038;SDS011;45916;52.734;6.544;2023-12-14T09:25:17;18.15;;;14.38;;
60038;SDS011;45916;52.734;6.544;2023-12-14T09:27:44;20.48;;;14.15;;
60038;SDS011;45916;52.734;6.544;2023-12-14T09:30:10;21.13;;;13.23;;
60038;SDS011;45916;52.734;6.544;2023-12-14T09:32:36;21.42;;;13.38;;
60038;SDS011;45916;52.734;6.544;2023-12-14T09:35:02;21.23;;;14.10;;
60038;SDS011;45916;52.734;6.544;2023-12-14T09:37:28;20.75;;;14.27;;
60038;SDS011;45916;52.734;6.544;2023-12-14T09:39:54;20.75;;;14.55;;
60038;SDS011;45916;52.734;6.544;2023-12-14T09:42:20;21.35;;;13.32;;
60038;SDS011;45916;52.734;6.544;2023-12-14T09:44:46;19.05;;;13.57;;
60038;SDS011;45916;52.734;6.544;2023-12-14T09:47:13;21.65;;;14.02;;
60038;SDS011;45916;52.734;6.544;2023-12-14T09:49:39;16.75;;;12.90;;
60038;SDS011;45916;52.734;6.544;2023-12-14T09:54:34;21.90;;;13.02;;
60038;SDS011;45916;52.734;6.544;2023-12-14T09:56:59;20.77;;;13.32;;
60038;SDS011;45916;52.734;6.544;2023-12-14T09:59:25;19.90;;;13.57;;
60038;SDS011;45916;52.734;6.544;2023-12-14T10:01:51;19.48;;;13.88;;
60038;SDS011;45916;52.734;6.544;2023-12-14T10:04:18;18.90;;;13.10;;
60038;SDS011;45916;52.734;6.544;2023-12-14T10:06:45;19.90;;;14.15;;
60038;SDS011;45916;52.734;6.544;2023-12-14T10:09:13;19.83;;;13.68;;
60038;SDS011;45916;52.734;6.544;2023-12-14T10:11:43;23.67;;;15.68;;
60038;SDS011;45916;52.734;6.544;2023-12-14T10:14:19;21.77;;;15.75;;
60038;SDS011;45916;52.734;6.544;2023-12-14T10:16:46;22.92;;;16.35;;
60038;SDS011;45916;52.734;6.544;2023-12-14T10:19:13;22.20;;;15.82;;
60038;SDS011;45916;52.734;6.544;2023-12-14T10:21:38;21.63;;;15.68;;
60038;SDS011;45916;52.734;6.544;2023-12-14T10:24:04;22.55;;;15.13;;
60038;SDS011;45916;52.734;6.544;2023-12-14T10:26:31;24.13;;;16.38;;
60038;SDS011;45916;52.734;6.544;2023-12-14T10:28:57;22.67;;;15.10;;
60038;SDS011;45916;52.734;6.544;2023-12-14T10:31:23;21.42;;;15.50;;
60038;SDS011;45916;52.734;6.544;2023-12-14T10:36:19;20.80;;;14.77;;
60038;SDS011;45916;52.734;6.544;2023-12-14T10:38:50;21.42;;;15.60;;
60038;SDS011;45916;52.734;6.544;2023-12-14T10:41:18;22.10;;;15.52;;
60038;SDS011;45916;52.734;6.544;2023-12-14T10:43:46;22.30;;;15.60;;
60038;SDS011;45916;52.734;6.544;2023-12-14T10:46:13;20.80;;;15.57;;
60038;SDS011;45916;52.734;6.544;2023-12-14T10:48:39;22.08;;;15.65;;
60038;SDS011;45916;52.734;6.544;2023-12-14T10:51:09;23.95;;;16.23;;
60038;SDS011;45916;52.734;6.544;2023-12-14T10:53:39;23.42;;;16.20;;
60038;SDS011;45916;52.734;6.544;2023-12-14T10:56:08;23.17;;;15.65;;
60038;SDS011;45916;52.734;6.544;2023-12-14T10:58:55;22.08;;;16.00;;
60038;SDS011;45916;52.734;6.544;2023-12-14T11:01:22;23.85;;;15.52;;
60038;SDS011;45916;52.734;6.544;2023-12-14T11:03:49;22.38;;;15.50;;
60038;SDS011;45916;52.734;6.544;2023-12-14T11:09:01;22.27;;;16.42;;
60038;SDS011;45916;52.734;6.544;2023-12-14T11:11:41;20.92;;;15.40;;
60038;SDS011;45916;52.734;6.544;2023-12-14T11:14:25;19.75;;;14.50;;
60038;SDS011;45916;52.734;6.544;2023-12-14T11:17:10;21.65;;;14.70;;
60038;SDS011;45916;52.734;6.544;2023-12-14T11:19:37;21.98;;;13.60;;
60038;SDS011;45916;52.734;6.544;2023-12-14T11:27:06;18.13;;;12.65;;
60038;SDS011;45916;52.734;6.544;2023-12-14T11:29:32;18.05;;;12.98;;
60038;SDS011;45916;52.734;6.544;2023-12-14T11:32:00;18.10;;;12.45;;
60038;SDS011;45916;52.734;6.544;2023-12-14T11:34:26;16.98;;;12.30;;
60038;SDS011;45916;52.734;6.544;2023-12-14T11:36:54;19.48;;;12.65;;
60038;SDS011;45916;52.734;6.544;2023-12-14T11:39:20;17.17;;;12.47;;
60038;SDS011;45916;52.734;6.544;2023-12-14T11:42:02;17.08;;;12.60;;
60038;SDS011;45916;52.734;6.544;2023-12-14T11:44:29;16.23;;;12.48;;
60038;SDS011;45916;52.734;6.544;2023-12-14T11:46:56;16.33;;;12.15;;
60038;SDS011;45916;52.734;6.544;2023-12-14T11:49:23;18.33;;;13.13;;
60038;SDS011;45916;52.734;6.544;2023-12-14T11:51:54;21.10;;;13.38;;
60038;SDS011;45916;52.734;6.544;2023-12-14T11:54:20;17.63;;;13.25;;
60038;SDS011;45916;52.734;6.544;2023-12-14T11:56:47;15.65;;;12.07;;
60038;SDS011;45916;52.734;6.544;2023-12-14T11:59:17;15.48;;;13.20;;
60038;SDS011;45916;52.734;6.544;2023-12-14T12:01:53;16.83;;;12.10;;
60038;SDS011;45916;52.734;6.544;2023-12-14T12:04:20;17.63;;;12.30;;
60038;SDS011;45916;52.734;6.544;2023-12-14T12:06:46;15.63;;;12.07;;
60038;SDS011;45916;52.734;6.544;2023-12-14T12:09:12;16.00;;;12.48;;
60038;SDS011;45916;52.734;6.544;2023-12-14T12:11:38;15.65;;;12.00;;
60038;SDS011;45916;52.734;6.544;2023-12-14T12:14:04;16.33;;;12.35;;
60038;SDS011;45916;52.734;6.544;2023-12-14T12:16:30;16.95;;;14.02;;
60038;SDS011;45916;52.734;6.544;2023-12-14T12:18:56;16.27;;;12.85;;
60038;SDS011;45916;52.734;6.544;2023-12-14T12:21:22;16.70;;;13.88;;
60038;SDS011;45916;52.734;6.544;2023-12-14T12:23:48;17.13;;;13.07;;
60038;SDS011;45916;52.734;6.544;2023-12-14T12:26:14;19.77;;;13.50;;
60038;SDS011;45916;52.734;6.544;2023-12-14T12:28:40;16.70;;;12.38;;
60038;SDS011;45916;52.734;6.544;2023-12-14T12:31:06;16.77;;;12.65;;
60038;SDS011;45916;52.734;6.544;2023-12-14T12:33:31;16.90;;;12.82;;
60038;SDS011;45916;52.734;6.544;2023-12-14T12:36:02;16.02;;;11.98;;
60038;SDS011;45916;52.734;6.544;2023-12-14T12:38:28;17.60;;;13.43;;
60038;SDS011;45916;52.734;6.544;2023-12-14T12:40:54;16.90;;;12.00;;
60038;SDS011;45916;52.734;6.544;2023-12-14T12:43:20;16.23;;;12.70;;
60038;SDS011;45916;52.734;6.544;2023-12-14T12:45:46;17.15;;;13.18;;
60038;SDS011;45916;52.734;6.544;2023-12-14T12:48:12;18.05;;;11.43;;
60038;SDS011;45916;52.734;6.544;2023-12-14T12:50:38;16.23;;;11.95;;
60038;SDS011;45916;52.734;6.544;2023-12-14T12:53:04;16.58;;;12.55;;
60038;SDS011;45916;52.734;6.544;2023-12-14T12:55:30;16.85;;;13.10;;
60038;SDS011;45916;52.734;6.544;2023-12-14T12:57:56;14.85;;;12.30;;
60038;SDS011;45916;52.734;6.544;2023-12-14T13:00:23;16.02;;;10.82;;
60038;SDS011;45916;52.734;6.544;2023-12-14T13:02:49;17.50;;;11.55;;
60038;SDS011;45916;52.734;6.544;2023-12-14T13:05:14;17.63;;;11.30;;
60038;SDS011;45916;52.734;6.544;2023-12-14T13:07:43;16.52;;;12.32;;
60038;SDS011;45916;52.734;6.544;2023-12-14T13:10:10;17.50;;;12.18;;
60038;SDS011;45916;52.734;6.544;2023-12-14T13:12:36;21.38;;;12.93;;
60038;SDS011;45916;52.734;6.544;2023-12-14T13:15:02;18.60;;;13.45;;
60038;SDS011;45916;52.734;6.544;2023-12-14T13:17:28;17.85;;;12.35;;
60038;SDS011;45916;52.734;6.544;2023-12-14T13:19:53;17.85;;;12.20;;
60038;SDS011;45916;52.734;6.544;2023-12-14T13:22:19;17.17;;;12.68;;
60038;SDS011;45916;52.734;6.544;2023-12-14T13:24:45;19.50;;;12.73;;
60038;SDS011;45916;52.734;6.544;2023-12-14T13:27:11;18.20;;;11.77;;
60038;SDS011;45916;52.734;6.544;2023-12-14T13:29:37;18.85;;;12.88;;
60038;SDS011;45916;52.734;6.544;2023-12-14T13:32:03;20.30;;;13.80;;
60038;SDS011;45916;52.734;6.544;2023-12-14T13:34:29;17.23;;;12.73;;
60038;SDS011;45916;52.734;6.544;2023-12-14T13:36:55;19.02;;;12.90;;
60038;SDS011;45916;52.734;6.544;2023-12-14T13:39:21;18.83;;;12.88;;
60038;SDS011;45916;52.734;6.544;2023-12-14T13:41:47;18.42;;;12.85;;
60038;SDS011;45916;52.734;6.544;2023-12-14T13:44:14;17.42;;;13.27;;
60038;SDS011;45916;52.734;6.544;2023-12-14T13:46:39;18.27;;;13.55;;
60038;SDS011;45916;52.734;6.544;2023-12-14T13:49:05;18.90;;;13.13;;
60038;SDS011;45916;52.734;6.544;2023-12-14T13:51:31;19.63;;;12.80;;
60038;SDS011;45916;52.734;6.544;2023-12-14T13:53:57;19.42;;;13.35;;
60038;SDS011;45916;52.734;6.544;2023-12-14T13:56:23;18.77;;;13.48;;
60038;SDS011;45916;52.734;6.544;2023-12-14T13:58:49;18.75;;;13.80;;
60038;SDS011;45916;52.734;6.544;2023-12-14T14:01:14;18.88;;;13.65;;
60038;SDS011;45916;52.734;6.544;2023-12-14T14:03:40;20.65;;;14.95;;
60038;SDS011;45916;52.734;6.544;2023-12-14T14:06:07;16.42;;;12.82;;
60038;SDS011;45916;52.734;6.544;2023-12-14T14:08:33;20.27;;;14.43;;
60038;SDS011;45916;52.734;6.544;2023-12-14T14:11:00;20.05;;;13.95;;
60038;SDS011;45916;52.734;6.544;2023-12-14T14:13:26;19.10;;;13.15;;
60038;SDS011;45916;52.734;6.544;2023-12-14T14:15:53;18.75;;;14.18;;
60038;SDS011;45916;52.734;6.544;2023-12-14T14:18:19;21.10;;;14.18;;
60038;SDS011;45916;52.734;6.544;2023-12-14T14:20:45;19.77;;;14.13;;
60038;SDS011;45916;52.734;6.544;2023-12-14T14:23:11;20.00;;;13.85;;
60038;SDS011;45916;52.734;6.544;2023-12-14T14:25:36;17.13;;;13.77;;
60038;SDS011;45916;52.734;6.544;2023-12-14T14:28:02;18.88;;;13.88;;
60038;SDS011;45916;52.734;6.544;2023-12-14T14:30:29;19.13;;;13.93;;